TimeMST,TemperatureF,Dew PointF,Humidity,Sea Level PressureIn,VisibilityMPH,Wind Direction,Wind SpeedMPH,Gust SpeedMPH,PrecipitationIn,Events,Conditions,WindDirDegrees,DateUTC
12:15 AM,42.8,19.4,39,30.10,10.0,SW,13.8,19.6,N/A,,Clear,230,2012-11-28 07:15:00
12:35 AM,39.2,19.4,45,30.09,10.0,SSW,15.0,-,N/A,,Clear,200,2012-11-28 07:35:00
12:55 AM,39.2,19.4,45,30.09,10.0,SSW,13.8,-,N/A,,Clear,210,2012-11-28 07:55:00
1:15 AM,39.2,19.4,45,30.09,10.0,SSW,9.2,-,N/A,,Clear,210,2012-11-28 08:15:00
1:35 AM,39.2,19.4,45,30.09,10.0,Calm,Calm,-,N/A,,Clear,0,2012-11-28 08:35:00
1:55 AM,42.8,19.4,39,30.08,10.0,West,6.9,-,N/A,,Clear,270,2012-11-28 08:55:00
2:15 AM,42.8,19.4,39,30.08,10.0,South,10.4,24.2,N/A,,Clear,190,2012-11-28 09:15:00
2:35 AM,44.6,17.6,34,30.07,10.0,SW,13.8,21.9,N/A,,Clear,220,2012-11-28 09:35:00
2:55 AM,44.6,19.4,37,30.07,10.0,WSW,3.5,-,N/A,,Clear,240,2012-11-28 09:55:00
3:15 AM,44.6,17.6,34,30.07,10.0,South,10.4,-,N/A,,Clear,190,2012-11-28 10:15:00
3:35 AM,42.8,19.4,39,30.06,10.0,South,19.6,-,N/A,,Clear,170,2012-11-28 10:35:00
3:55 AM,42.8,19.4,39,30.05,10.0,SSE,19.6,23.0,N/A,,Clear,150,2012-11-28 10:55:00
4:15 AM,42.8,19.4,39,30.05,10.0,SSE,17.3,21.9,N/A,,Clear,150,2012-11-28 11:15:00
4:35 AM,42.8,19.4,39,30.05,10.0,SSE,15.0,19.6,N/A,,Clear,160,2012-11-28 11:35:00
4:55 AM,42.8,19.4,39,30.06,10.0,South,9.2,20.7,N/A,,Clear,180,2012-11-28 11:55:00
5:15 AM,39.2,19.4,45,30.06,10.0,South,13.8,-,N/A,,Clear,190,2012-11-28 12:15:00
5:35 AM,41.0,17.6,39,30.07,10.0,WNW,8.1,-,N/A,,Clear,290,2012-11-28 12:35:00
5:56 AM,42.8,17.6,36,30.06,10.0,SSE,11.5,-,N/A,,Clear,150,2012-11-28 12:56:00
6:15 AM,42.8,17.6,36,30.06,10.0,SSE,13.8,20.7,N/A,,Clear,150,2012-11-28 13:15:00
6:35 AM,42.8,15.8,34,30.06,10.0,SE,15.0,18.4,N/A,,Clear,140,2012-11-28 13:35:00
6:55 AM,44.6,15.8,31,30.06,10.0,SE,8.1,-,N/A,,Clear,140,2012-11-28 13:55:00
7:15 AM,44.6,15.8,31,30.06,10.0,ESE,10.4,-,N/A,,Clear,120,2012-11-28 14:15:00
7:35 AM,41.0,17.6,39,30.06,10.0,SSE,15.0,-,N/A,,Clear,150,2012-11-28 14:35:00
7:55 AM,44.6,17.6,34,30.06,10.0,Calm,Calm,-,N/A,,Clear,0,2012-11-28 14:55:00
8:15 AM,44.6,17.6,34,30.06,10.0,South,16.1,-,N/A,,Clear,180,2012-11-28 15:15:00
8:35 AM,42.8,17.6,36,30.06,10.0,SSE,13.8,-,N/A,,Clear,150,2012-11-28 15:35:00
8:55 AM,41.0,19.4,42,30.07,10.0,SE,9.2,-,N/A,,Clear,140,2012-11-28 15:55:00
9:15 AM,39.2,19.4,45,30.07,10.0,SE,13.8,-,N/A,,Clear,130,2012-11-28 16:15:00
9:35 AM,42.8,19.4,39,30.06,10.0,SSE,16.1,-,N/A,,Clear,150,2012-11-28 16:35:00
9:55 AM,42.8,19.4,39,30.06,10.0,WNW,8.1,-,N/A,,Clear,300,2012-11-28 16:55:00
10:15 AM,44.6,19.4,37,30.06,10.0,WNW,6.9,-,N/A,,Clear,290,2012-11-28 17:15:00
10:35 AM,46.4,21.2,37,30.05,10.0,West,5.8,-,N/A,,Clear,280,2012-11-28 17:35:00
10:55 AM,48.2,19.4,32,30.06,10.0,NNW,3.5,-,N/A,,Clear,330,2012-11-28 17:55:00
11:35 AM,50.0,21.2,32,30.04,10.0,North,6.9,-,N/A,,Clear,10,2012-11-28 18:35:00
11:55 AM,46.4,24.8,43,30.03,10.0,NNE,8.1,-,N/A,,Clear,20,2012-11-28 18:55:00
12:16 PM,48.2,21.2,34,30.03,10.0,NW,4.6,-,N/A,,Clear,310,2012-11-28 19:16:00
12:35 PM,48.2,23.0,37,30.03,10.0,North,3.5,-,N/A,,Clear,10,2012-11-28 19:35:00
12:55 PM,51.8,19.4,28,30.01,10.0,West,5.8,-,N/A,,Clear,280,2012-11-28 19:55:00
1:15 PM,50.0,26.6,40,30.01,10.0,NE,6.9,-,N/A,,Clear,40,2012-11-28 20:15:00
1:35 PM,48.2,28.4,46,30.00,10.0,NE,6.9,-,N/A,,Clear,40,2012-11-28 20:35:00
1:55 PM,46.4,26.6,46,30.00,10.0,NNE,6.9,-,N/A,,Clear,30,2012-11-28 20:55:00
2:15 PM,44.6,30.2,57,29.99,10.0,North,6.9,-,N/A,,Clear,10,2012-11-28 21:15:00
2:35 PM,42.8,28.4,57,29.98,10.0,East,4.6,-,N/A,,Clear,90,2012-11-28 21:35:00
2:56 PM,46.4,28.4,50,29.97,10.0,NNE,5.8,-,N/A,,Clear,20,2012-11-28 21:56:00
3:15 PM,42.8,30.2,61,29.97,10.0,North,6.9,-,N/A,,Clear,10,2012-11-28 22:15:00
3:35 PM,42.8,30.2,61,29.96,10.0,NE,5.8,-,N/A,,Clear,50,2012-11-28 22:35:00
3:55 PM,37.4,28.4,70,29.96,10.0,NE,5.8,-,N/A,,Clear,40,2012-11-28 22:55:00
4:15 PM,37.4,26.6,65,29.97,10.0,ENE,6.9,-,N/A,,Clear,70,2012-11-28 23:15:00
5:15 PM,35.6,28.4,75,29.96,10.0,Calm,Calm,-,N/A,,Clear,0,2012-11-29 00:15:00
5:55 PM,35.6,26.6,70,29.95,10.0,Calm,Calm,-,N/A,,Clear,0,2012-11-29 00:55:00
6:15 PM,35.6,28.4,75,29.95,10.0,SE,3.5,-,N/A,,Clear,130,2012-11-29 01:15:00
6:35 PM,33.8,26.6,75,29.95,10.0,South,4.6,-,N/A,,Clear,170,2012-11-29 01:35:00
6:55 PM,35.6,24.8,65,29.95,10.0,SSE,3.5,-,N/A,,Clear,160,2012-11-29 01:55:00
7:15 PM,37.4,24.8,60,29.95,10.0,Calm,Calm,-,N/A,,Clear,0,2012-11-29 02:15:00
7:35 PM,39.2,24.8,56,29.95,10.0,SSE,3.5,-,N/A,,Clear,150,2012-11-29 02:35:00
7:55 PM,39.2,23.0,52,29.94,10.0,South,4.6,-,N/A,,Clear,180,2012-11-29 02:55:00
8:15 PM,39.2,24.8,56,29.93,10.0,SSE,6.9,-,N/A,,Clear,160,2012-11-29 03:15:00
8:35 PM,39.2,24.8,56,29.92,10.0,South,9.2,-,N/A,,Clear,170,2012-11-29 03:35:00
8:55 PM,39.2,24.8,56,29.92,10.0,South,11.5,-,N/A,,Clear,180,2012-11-29 03:55:00
9:15 PM,39.2,24.8,56,29.91,10.0,South,10.4,-,N/A,,Clear,190,2012-11-29 04:15:00
9:35 PM,41.0,24.8,53,29.90,10.0,SSW,8.1,-,N/A,,Clear,210,2012-11-29 04:35:00
9:55 PM,42.8,23.0,46,29.90,10.0,SSW,8.1,-,N/A,,Clear,210,2012-11-29 04:55:00
10:15 PM,39.2,24.8,56,29.90,10.0,SE,11.5,-,N/A,,Clear,140,2012-11-29 05:15:00
10:35 PM,41.0,24.8,53,29.89,10.0,South,6.9,-,N/A,,Clear,170,2012-11-29 05:35:00
10:55 PM,39.2,21.2,49,29.89,10.0,SSE,6.9,-,N/A,,Clear,160,2012-11-29 05:55:00
11:15 PM,39.2,21.2,49,29.88,10.0,SSE,6.9,-,N/A,,Clear,150,2012-11-29 06:15:00
11:35 PM,39.2,21.2,49,29.88,10.0,SSE,9.2,-,N/A,,Clear,150,2012-11-29 06:35:00
11:55 PM,39.2,23.0,52,29.89,10.0,SSE,6.9,-,N/A,,Clear,150,2012-11-29 06:55:00